sensor_id;sensor_type;location;lat;lon;timestamp;P1;durP1;ratioP1;P2;durP2;ratioP2
81312;SDS011;70780;52.722;5.724;2023-06-26T02:20:11;3.83;;;3.35;;
81312;SDS011;70780;52.722;5.724;2023-06-26T02:22:41;4.10;;;3.53;;
81312;SDS011;70780;52.722;5.724;2023-06-26T02:25:10;4.22;;;3.22;;
81312;SDS011;70780;52.722;5.724;2023-06-26T02:27:40;4.90;;;3.95;;
81312;SDS011;70780;52.722;5.724;2023-06-26T02:30:09;4.63;;;3.78;;
81312;SDS011;70780;52.722;5.724;2023-06-26T02:32:39;5.18;;;3.55;;
81312;SDS011;70780;52.722;5.724;2023-06-26T02:35:11;5.40;;;3.45;;
81312;SDS011;70780;52.722;5.724;2023-06-26T02:37:43;5.57;;;3.60;;
81312;SDS011;70780;52.722;5.724;2023-06-26T02:40:13;4.93;;;3.63;;
81312;SDS011;70780;52.722;5.724;2023-06-26T02:42:42;4.20;;;3.58;;
81312;SDS011;70780;52.722;5.724;2023-06-26T02:45:12;5.47;;;3.72;;
81312;SDS011;70780;52.722;5.724;2023-06-26T02:47:41;4.95;;;3.65;;
81312;SDS011;70780;52.722;5.724;2023-06-26T02:50:14;5.45;;;4.03;;
81312;SDS011;70780;52.722;5.724;2023-06-26T02:53:06;4.43;;;3.35;;
81312;SDS011;70780;52.722;5.724;2023-06-26T02:55:37;4.35;;;3.17;;
81312;SDS011;70780;52.722;5.724;2023-06-26T02:58:07;3.85;;;3.40;;
81312;SDS011;70780;52.722;5.724;2023-06-26T03:00:38;4.50;;;3.58;;
81312;SDS011;70780;52.722;5.724;2023-06-26T03:03:13;4.20;;;3.55;;
81312;SDS011;70780;52.722;5.724;2023-06-26T03:05:45;7.80;;;4.00;;
81312;SDS011;70780;52.722;5.724;2023-06-26T03:08:14;4.05;;;3.35;;
81312;SDS011;70780;52.722;5.724;2023-06-26T03:10:44;7.97;;;3.38;;
81312;SDS011;70780;52.722;5.724;2023-06-26T03:13:13;5.25;;;3.50;;
81312;SDS011;70780;52.722;5.724;2023-06-26T03:15:43;7.53;;;3.22;;
81312;SDS011;70780;52.722;5.724;2023-06-26T03:18:13;5.43;;;3.20;;
81312;SDS011;70780;52.722;5.724;2023-06-26T03:20:45;5.15;;;3.25;;
81312;SDS011;70780;52.722;5.724;2023-06-26T03:23:14;5.15;;;3.20;;
81312;SDS011;70780;52.722;5.724;2023-06-26T03:25:43;5.40;;;3.03;;
81312;SDS011;70780;52.722;5.724;2023-06-26T03:28:25;4.32;;;3.10;;
81312;SDS011;70780;52.722;5.724;2023-06-26T03:30:57;6.43;;;3.85;;
81312;SDS011;70780;52.722;5.724;2023-06-26T03:33:26;5.38;;;3.30;;
81312;SDS011;70780;52.722;5.724;2023-06-26T03:35:59;5.22;;;3.50;;
81312;SDS011;70780;52.722;5.724;2023-06-26T03:38:28;6.60;;;3.30;;
81312;SDS011;70780;52.722;5.724;2023-06-26T03:40:59;6.25;;;3.50;;
81312;SDS011;70780;52.722;5.724;2023-06-26T03:43:28;5.00;;;3.70;;
81312;SDS011;70780;52.722;5.724;2023-06-26T03:46:18;6.18;;;3.28;;
81312;SDS011;70780;52.722;5.724;2023-06-26T03:48:47;5.60;;;3.45;;
81312;SDS011;70780;52.722;5.724;2023-06-26T03:51:19;5.20;;;3.30;;
81312;SDS011;70780;52.722;5.724;2023-06-26T03:53:49;6.20;;;3.38;;
81312;SDS011;70780;52.722;5.724;2023-06-26T03:56:18;6.57;;;3.20;;
81312;SDS011;70780;52.722;5.724;2023-06-26T03:58:48;5.90;;;3.25;;
81312;SDS011;70780;52.722;5.724;2023-06-26T04:01:18;5.78;;;3.10;;
81312;SDS011;70780;52.722;5.724;2023-06-26T04:03:49;6.57;;;3.58;;
81312;SDS011;70780;52.722;5.724;2023-06-26T04:06:20;5.55;;;3.00;;
81312;SDS011;70780;52.722;5.724;2023-06-26T04:08:50;5.05;;;3.28;;
81312;SDS011;70780;52.722;5.724;2023-06-26T04:11:19;5.35;;;3.03;;
81312;SDS011;70780;52.722;5.724;2023-06-26T04:13:48;6.38;;;3.22;;
81312;SDS011;70780;52.722;5.724;2023-06-26T04:16:18;5.38;;;3.28;;
81312;SDS011;70780;52.722;5.724;2023-06-26T04:18:50;4.63;;;3.17;;
81312;SDS011;70780;52.722;5.724;2023-06-26T04:21:24;5.60;;;2.92;;
81312;SDS011;70780;52.722;5.724;2023-06-26T04:23:53;5.70;;;3.30;;
81312;SDS011;70780;52.722;5.724;2023-06-26T04:26:23;5.63;;;3.42;;
81312;SDS011;70780;52.722;5.724;2023-06-26T04:28:53;6.43;;;2.92;;
81312;SDS011;70780;52.722;5.724;2023-06-26T04:31:22;4.97;;;2.90;;
81312;SDS011;70780;52.722;5.724;2023-06-26T04:33:52;5.22;;;3.13;;
81312;SDS011;70780;52.722;5.724;2023-06-26T04:36:24;6.68;;;3.00;;
81312;SDS011;70780;52.722;5.724;2023-06-26T04:38:54;6.65;;;3.40;;
81312;SDS011;70780;52.722;5.724;2023-06-26T04:41:24;5.40;;;2.65;;
81312;SDS011;70780;52.722;5.724;2023-06-26T04:43:54;6.35;;;2.63;;
81312;SDS011;70780;52.722;5.724;2023-06-26T04:46:23;6.00;;;2.67;;
81312;SDS011;70780;52.722;5.724;2023-06-26T04:48:53;3.55;;;2.50;;
81312;SDS011;70780;52.722;5.724;2023-06-26T04:51:26;5.78;;;2.78;;
81312;SDS011;70780;52.722;5.724;2023-06-26T04:53:55;4.32;;;2.42;;
81312;SDS011;70780;52.722;5.724;2023-06-26T04:56:25;5.28;;;2.70;;
81312;SDS011;70780;52.722;5.724;2023-06-26T04:58:56;4.22;;;2.42;;
81312;SDS011;70780;52.722;5.724;2023-06-26T05:01:25;6.05;;;2.80;;
81312;SDS011;70780;52.722;5.724;2023-06-26T05:03:57;2.92;;;2.30;;
81312;SDS011;70780;52.722;5.724;2023-06-26T05:06:30;3.33;;;2.58;;
81312;SDS011;70780;52.722;5.724;2023-06-26T05:08:59;4.97;;;2.03;;
81312;SDS011;70780;52.722;5.724;2023-06-26T05:11:29;3.47;;;2.45;;
81312;SDS011;70780;52.722;5.724;2023-06-26T05:13:58;4.05;;;2.17;;
81312;SDS011;70780;52.722;5.724;2023-06-26T05:16:27;3.15;;;1.92;;
81312;SDS011;70780;52.722;5.724;2023-06-26T05:18:56;2.90;;;2.03;;
81312;SDS011;70780;52.722;5.724;2023-06-26T05:21:26;3.75;;;2.13;;
81312;SDS011;70780;52.722;5.724;2023-06-26T05:24:00;3.38;;;2.03;;
81312;SDS011;70780;52.722;5.724;2023-06-26T05:26:32;3.78;;;1.65;;
81312;SDS011;70780;52.722;5.724;2023-06-26T05:29:02;3.42;;;1.92;;
81312;SDS011;70780;52.722;5.724;2023-06-26T05:31:32;3.08;;;1.90;;
81312;SDS011;70780;52.722;5.724;2023-06-26T05:34:04;3.80;;;2.03;;
81312;SDS011;70780;52.722;5.724;2023-06-26T05:36:37;4.40;;;1.85;;
81312;SDS011;70780;52.722;5.724;2023-06-26T05:39:07;2.50;;;1.45;;
81312;SDS011;70780;52.722;5.724;2023-06-26T05:41:37;2.97;;;1.52;;
81312;SDS011;70780;52.722;5.724;2023-06-26T05:44:07;2.97;;;1.50;;
81312;SDS011;70780;52.722;5.724;2023-06-26T05:46:36;4.88;;;1.75;;
81312;SDS011;70780;52.722;5.724;2023-06-26T05:49:06;2.47;;;1.85;;
81312;SDS011;70780;52.722;5.724;2023-06-26T05:51:38;2.10;;;1.45;;
81312;SDS011;70780;52.722;5.724;2023-06-26T05:54:08;2.90;;;1.50;;
81312;SDS011;70780;52.722;5.724;2023-06-26T05:56:39;3.97;;;1.55;;
81312;SDS011;70780;52.722;5.724;2023-06-26T05:59:08;3.35;;;1.45;;
81312;SDS011;70780;52.722;5.724;2023-06-26T06:01:39;4.05;;;1.60;;
81312;SDS011;70780;52.722;5.724;2023-06-26T06:04:09;2.30;;;1.38;;
81312;SDS011;70780;52.722;5.724;2023-06-26T15:23:15;3.22;;;0.80;;
81312;SDS011;70780;52.722;5.724;2023-06-26T15:25:45;4.28;;;0.90;;
81312;SDS011;70780;52.722;5.724;2023-06-26T15:28:14;2.22;;;0.70;;
81312;SDS011;70780;52.722;5.724;2023-06-26T15:30:44;3.25;;;0.80;;
81312;SDS011;70780;52.722;5.724;2023-06-26T15:33:14;6.35;;;1.00;;
81312;SDS011;70780;52.722;5.724;2023-06-26T15:35:43;1.92;;;0.63;;
81312;SDS011;70780;52.722;5.724;2023-06-26T15:38:12;4.05;;;0.90;;
81312;SDS011;70780;52.722;5.724;2023-06-26T15:43:13;1.35;;;0.60;;
81312;SDS011;70780;52.722;5.724;2023-06-26T15:45:43;1.95;;;0.70;;
81312;SDS011;70780;52.722;5.724;2023-06-26T15:48:12;4.28;;;0.90;;
81312;SDS011;70780;52.722;5.724;2023-06-26T15:50:41;1.67;;;0.55;;
81312;SDS011;70780;52.722;5.724;2023-06-26T15:53:10;1.48;;;0.60;;
81312;SDS011;70780;52.722;5.724;2023-06-26T15:55:47;3.42;;;0.80;;
81312;SDS011;70780;52.722;5.724;2023-06-26T15:58:16;1.55;;;0.60;;
81312;SDS011;70780;52.722;5.724;2023-06-26T16:00:45;1.25;;;0.50;;
81312;SDS011;70780;52.722;5.724;2023-06-26T16:03:14;3.03;;;0.70;;
81312;SDS011;70780;52.722;5.724;2023-06-26T16:05:44;2.78;;;0.90;;
81312;SDS011;70780;52.722;5.724;2023-06-26T16:08:13;2.72;;;0.60;;
81312;SDS011;70780;52.722;5.724;2023-06-26T16:10:45;2.70;;;0.60;;
81312;SDS011;70780;52.722;5.724;2023-06-26T16:13:14;2.83;;;0.60;;
81312;SDS011;70780;52.722;5.724;2023-06-26T16:15:45;1.88;;;0.65;;
81312;SDS011;70780;52.722;5.724;2023-06-26T16:18:15;2.20;;;0.52;;
81312;SDS011;70780;52.722;5.724;2023-06-26T16:20:44;3.08;;;0.77;;
81312;SDS011;70780;52.722;5.724;2023-06-26T16:23:14;2.25;;;0.60;;
81312;SDS011;70780;52.722;5.724;2023-06-26T16:25:46;3.83;;;0.80;;
81312;SDS011;70780;52.722;5.724;2023-06-26T16:28:15;1.27;;;0.47;;
81312;SDS011;70780;52.722;5.724;2023-06-26T16:30:45;0.82;;;0.50;;
81312;SDS011;70780;52.722;5.724;2023-06-26T16:33:14;1.70;;;0.50;;
81312;SDS011;70780;52.722;5.724;2023-06-26T16:35:43;3.40;;;0.50;;
81312;SDS011;70780;52.722;5.724;2023-06-26T16:38:13;3.28;;;0.63;;
81312;SDS011;70780;52.722;5.724;2023-06-26T16:40:42;1.45;;;0.45;;
